createdAt,value
2023-01-21T00:01:07.845Z,1.30
2023-01-21T00:03:34.525Z,1.29
2023-01-21T00:06:01.030Z,1.30
2023-01-21T00:08:27.558Z,1.29
2023-01-21T00:10:54.359Z,1.30
2023-01-21T00:13:21.470Z,1.30
2023-01-21T00:15:48.081Z,1.30
2023-01-21T00:18:14.528Z,1.27
2023-01-21T00:20:40.962Z,1.27
2023-01-21T00:23:07.349Z,1.25
2023-01-21T00:25:33.710Z,1.24
2023-01-21T00:28:00.227Z,1.23
2023-01-21T00:30:26.873Z,1.22
2023-01-21T00:32:53.337Z,1.14
2023-01-21T00:35:19.764Z,1.12
2023-01-21T00:37:46.163Z,1.09
2023-01-21T00:40:13.216Z,1.06
2023-01-21T00:42:39.585Z,1.04
2023-01-21T00:45:06.696Z,1.00
2023-01-21T00:47:33.116Z,0.96
2023-01-21T00:49:59.522Z,0.93
2023-01-21T00:52:25.937Z,0.88
2023-01-21T00:54:52.315Z,0.82
2023-01-21T00:57:18.782Z,0.76
2023-01-21T00:59:45.540Z,0.72
2023-01-21T01:02:11.960Z,0.70
2023-01-21T01:04:38.527Z,0.65
2023-01-21T01:07:05.456Z,0.61
2023-01-21T01:09:32.142Z,0.59
2023-01-21T01:11:58.554Z,0.55
2023-01-21T01:14:25.232Z,0.53
2023-01-21T01:16:51.674Z,0.46
2023-01-21T01:19:18.111Z,0.43
2023-01-21T01:21:44.584Z,0.37
2023-01-21T01:24:11.089Z,0.34
2023-01-21T01:26:37.466Z,0.29
2023-01-21T01:29:05.128Z,0.24
2023-01-21T01:31:32.079Z,0.17
2023-01-21T01:33:58.786Z,0.10
2023-01-21T01:36:25.570Z,0.06
2023-01-21T01:38:53.627Z,0.03
2023-01-21T01:41:27.301Z,-0.02
2023-01-21T01:44:02.342Z,-0.06
2023-01-21T01:46:36.439Z,-0.12
2023-01-21T01:49:06.334Z,-0.14
2023-01-21T01:51:51.567Z,-0.19
2023-01-21T01:54:22.804Z,-0.22
2023-01-21T01:56:53.041Z,-0.27
2023-01-21T01:59:19.802Z,-0.28
2023-01-21T02:01:46.493Z,-0.29
2023-01-21T02:04:19.941Z,-0.29
2023-01-21T02:06:48.153Z,-0.30
2023-01-21T02:09:14.592Z,-0.32
2023-01-21T02:11:41.129Z,-0.33
2023-01-21T02:14:07.814Z,-0.33
2023-01-21T02:17:03.515Z,-0.35
2023-01-21T02:19:42.784Z,-0.34
2023-01-21T02:22:37.551Z,-0.34
2023-01-21T02:28:36.826Z,-0.33
2023-01-21T02:31:15.257Z,-0.33
2023-01-21T02:33:52.905Z,-0.31
2023-01-21T02:36:44.492Z,-0.31
2023-01-21T02:39:44.929Z,-0.36
2023-01-21T02:42:33.275Z,-0.39
2023-01-21T02:45:23.873Z,-0.41
2023-01-21T02:48:10.627Z,-0.43
2023-01-21T02:50:43.685Z,-0.44
2023-01-21T02:53:30.610Z,-0.46
2023-01-21T02:56:02.776Z,-0.48
2023-01-21T02:58:37.239Z,-0.48
2023-01-21T03:01:24.754Z,-0.48
2023-01-21T03:04:28.596Z,-0.50
2023-01-21T03:07:04.287Z,-0.48
2023-01-21T03:09:33.659Z,-0.51
2023-01-21T03:12:17.393Z,-0.52
2023-01-21T03:15:15.058Z,-0.51
2023-01-21T03:18:03.965Z,-0.52
2023-01-21T03:20:37.708Z,-0.54
2023-01-21T03:23:08.563Z,-0.52
2023-01-21T03:25:36.468Z,-0.52
2023-01-21T03:28:08.498Z,-0.51
2023-01-21T03:30:37.241Z,-0.48
2023-01-21T03:33:04.663Z,-0.48
2023-01-21T03:35:40.324Z,-0.48
2023-01-21T03:38:17.752Z,-0.49
2023-01-21T03:41:14.517Z,-0.46
2023-01-21T03:43:41.087Z,-0.46
2023-01-21T03:46:14.163Z,-0.43
2023-01-21T03:49:03.237Z,-0.45
2023-01-21T03:51:35.308Z,-0.46
2023-01-21T03:54:01.671Z,-0.50
2023-01-21T03:56:28.643Z,-0.54
2023-01-21T03:58:55.097Z,-0.57
2023-01-21T04:01:21.869Z,-0.63
2023-01-21T04:03:48.590Z,-0.70
2023-01-21T04:06:24.076Z,-0.76
2023-01-21T04:08:50.637Z,-0.83
2023-01-21T04:11:17.076Z,-0.87
2023-01-21T04:13:44.524Z,-0.93
2023-01-21T04:16:11.076Z,-1.00
2023-01-21T04:18:37.605Z,-1.06
2023-01-21T04:21:04.169Z,-1.12
2023-01-21T04:23:30.610Z,-1.15
2023-01-21T04:25:57.020Z,-1.20
2023-01-21T04:28:23.536Z,-1.23
2023-01-21T04:30:50.091Z,-1.27
2023-01-21T04:33:17.720Z,-1.31
2023-01-21T04:35:44.202Z,-1.32
2023-01-21T04:38:11.482Z,-1.36
2023-01-21T04:40:37.881Z,-1.41
2023-01-21T04:43:04.299Z,-1.45
2023-01-21T04:45:30.739Z,-1.51
2023-01-21T04:47:57.256Z,-1.56
2023-01-21T04:50:23.710Z,-1.60
2023-01-21T04:52:50.144Z,-1.63
2023-01-21T04:55:16.833Z,-1.65
2023-01-21T04:57:43.247Z,-1.72
2023-01-21T05:00:10.277Z,-1.76
2023-01-21T05:02:36.854Z,-1.81
2023-01-21T05:05:03.574Z,-1.84
2023-01-21T05:07:29.981Z,-1.88
2023-01-21T05:09:56.340Z,-1.88
2023-01-21T05:12:22.792Z,-1.91
2023-01-21T05:14:53.405Z,-1.93
2023-01-21T05:17:19.942Z,-1.98
2023-01-21T05:19:46.565Z,-2.02
2023-01-21T05:22:12.942Z,-2.06
2023-01-21T05:24:39.438Z,-2.11
2023-01-21T05:27:05.880Z,-2.14
2023-01-21T05:29:32.284Z,-2.19
2023-01-21T05:31:58.760Z,-2.22
2023-01-21T05:34:25.170Z,-2.24
2023-01-21T05:36:51.788Z,-2.29
2023-01-21T05:39:18.265Z,-2.30
2023-01-21T05:41:44.659Z,-2.34
2023-01-21T05:44:11.184Z,-2.36
2023-01-21T05:46:37.639Z,-2.40
2023-01-21T05:49:04.146Z,-2.41
2023-01-21T05:51:30.527Z,-2.43
2023-01-21T05:53:57.050Z,-2.46
2023-01-21T05:56:23.481Z,-2.49
2023-01-21T05:58:49.893Z,-2.50
2023-01-21T06:01:16.312Z,-2.51
2023-01-21T06:03:42.768Z,-2.56
2023-01-21T06:06:09.221Z,-2.59
2023-01-21T06:08:35.621Z,-2.62
2023-01-21T06:11:02.052Z,-2.68
2023-01-21T06:13:28.481Z,-2.71
2023-01-21T06:15:56.503Z,-2.73
2023-01-21T06:18:23.761Z,-2.76
2023-01-21T06:20:50.223Z,-2.80
2023-01-21T06:23:16.634Z,-2.80
2023-01-21T06:25:43.563Z,-2.82
2023-01-21T06:28:13.207Z,-2.85
2023-01-21T06:30:39.629Z,-2.87
2023-01-21T06:33:06.032Z,-2.89
2023-01-21T06:35:32.635Z,-2.91
2023-01-21T06:37:59.037Z,-2.92
2023-01-21T06:40:25.773Z,-2.93
2023-01-21T06:42:53.762Z,-2.96
2023-01-21T06:45:20.244Z,-2.93
2023-01-21T06:47:46.668Z,-2.95
2023-01-21T06:50:16.039Z,-2.96
2023-01-21T06:52:44.435Z,-2.96
2023-01-21T06:55:10.947Z,-2.98
2023-01-21T06:57:38.358Z,-2.96
2023-01-21T07:00:05.404Z,-2.96
2023-01-21T07:02:31.868Z,-2.95
2023-01-21T07:04:59.251Z,-2.93
2023-01-21T07:07:25.937Z,-2.95
2023-01-21T07:09:52.359Z,-2.93
2023-01-21T07:12:18.771Z,-2.90
2023-01-21T07:14:45.331Z,-2.89
2023-01-21T07:17:12.269Z,-2.84
2023-01-21T07:19:38.661Z,-2.79
2023-01-21T07:22:05.225Z,-2.76
2023-01-21T07:24:31.571Z,-2.71
2023-01-21T07:26:58.066Z,-2.67
2023-01-21T07:29:24.444Z,-2.64
2023-01-21T07:31:51.515Z,-2.59
2023-01-21T07:34:18.015Z,-2.53
2023-01-21T07:36:44.428Z,-2.47
2023-01-21T07:39:10.886Z,-2.39
2023-01-21T07:41:37.252Z,-2.33
2023-01-21T07:44:03.739Z,-2.29
2023-01-21T07:46:30.203Z,-2.22
2023-01-21T07:48:56.662Z,-2.15
2023-01-21T07:51:23.273Z,-2.07
2023-01-21T07:53:49.703Z,-2.02
2023-01-21T07:56:18.055Z,-1.96
2023-01-21T07:58:44.672Z,-1.89
2023-01-21T08:01:11.028Z,-1.84
2023-01-21T08:03:38.595Z,-1.79
2023-01-21T08:06:05.902Z,-1.72
2023-01-21T08:08:33.382Z,-1.64
2023-01-21T08:10:59.757Z,-1.57
2023-01-21T08:13:26.534Z,-1.52
2023-01-21T08:15:55.157Z,-1.45
2023-01-21T08:18:23.032Z,-1.39
2023-01-21T08:20:54.296Z,-1.33
2023-01-21T08:23:20.675Z,-1.27
2023-01-21T08:25:47.079Z,-1.24
2023-01-21T08:28:14.225Z,-1.22
2023-01-21T08:30:40.634Z,-1.17
2023-01-21T08:33:07.031Z,-1.14
2023-01-21T08:35:33.465Z,-1.11
2023-01-21T08:37:59.827Z,-1.10
2023-01-21T08:40:27.320Z,-1.07
2023-01-21T08:43:04.681Z,-1.03
2023-01-21T08:45:31.190Z,-1.03
2023-01-21T08:47:57.647Z,-1.02
2023-01-21T08:50:24.408Z,-0.99
2023-01-21T08:52:53.084Z,-0.98
2023-01-21T08:55:20.042Z,-0.97
2023-01-21T08:57:46.938Z,-0.96
2023-01-21T09:00:14.243Z,-0.95
2023-01-21T09:02:40.697Z,-0.92
2023-01-21T09:05:07.704Z,-0.88
2023-01-21T09:07:34.104Z,-0.83
2023-01-21T09:10:00.541Z,-0.77
2023-01-21T09:12:26.967Z,-0.74
2023-01-21T09:14:53.384Z,-0.70
2023-01-21T09:17:19.739Z,-0.65
2023-01-21T09:19:46.609Z,-0.61
2023-01-21T09:22:13.858Z,-0.52
2023-01-21T09:24:40.373Z,-0.43
2023-01-21T09:27:07.953Z,-0.34
2023-01-21T09:29:34.776Z,-0.25
2023-01-21T09:32:02.182Z,-0.17
2023-01-21T09:34:29.082Z,-0.11
2023-01-21T09:36:55.490Z,-0.06
2023-01-21T09:39:21.946Z,0.00
2023-01-21T09:41:50.342Z,0.06
2023-01-21T09:44:19.424Z,0.13
2023-01-21T09:46:45.773Z,0.16
2023-01-21T09:49:28.047Z,0.29
2023-01-21T09:52:21.750Z,0.41
2023-01-21T09:54:48.290Z,0.51
2023-01-21T09:57:33.254Z,0.60
2023-01-21T10:00:15.366Z,0.56
2023-01-21T10:02:56.378Z,0.55
2023-01-21T10:05:46.262Z,0.62
2023-01-21T10:08:29.901Z,0.77
2023-01-21T10:11:27.536Z,0.94
2023-01-21T10:14:12.746Z,1.02
2023-01-21T10:16:51.062Z,1.01
2023-01-21T10:19:22.900Z,1.18
2023-01-21T10:21:55.736Z,1.29
2023-01-21T10:24:31.220Z,1.43
2023-01-21T10:26:59.237Z,1.40
2023-01-21T10:29:27.261Z,1.41
2023-01-21T10:32:05.276Z,1.56
2023-01-21T10:34:35.485Z,1.65
2023-01-21T10:37:20.444Z,1.75
2023-01-21T10:40:11.459Z,1.88
2023-01-21T10:42:56.701Z,2.02
2023-01-21T10:45:35.575Z,2.15
2023-01-21T10:48:19.464Z,2.21
2023-01-21T10:50:51.530Z,2.36
2023-01-21T10:53:31.531Z,2.51
2023-01-21T10:56:18.269Z,2.40
2023-01-21T10:58:57.462Z,2.54
2023-01-21T11:01:36.904Z,2.67
2023-01-21T11:04:14.260Z,2.83
2023-01-21T11:06:40.862Z,2.89
2023-01-21T11:09:09.964Z,2.78
2023-01-21T11:11:37.388Z,2.68
2023-01-21T11:14:03.946Z,2.53
2023-01-21T11:16:42.955Z,2.22
2023-01-21T11:19:16.492Z,2.11
2023-01-21T11:21:57.841Z,2.00
2023-01-21T11:24:25.528Z,1.92
2023-01-21T11:26:55.113Z,1.79
2023-01-21T11:29:24.006Z,1.70
2023-01-21T11:32:03.756Z,1.64
2023-01-21T11:34:30.803Z,1.59
2023-01-21T11:37:02.180Z,1.54
2023-01-21T11:39:34.935Z,1.44
2023-01-21T11:42:07.215Z,1.33
2023-01-21T11:44:34.615Z,1.31
2023-01-21T11:47:01.288Z,1.30
2023-01-21T11:49:32.959Z,1.34
2023-01-21T11:52:28.991Z,1.37
2023-01-21T11:54:55.404Z,1.30
2023-01-21T11:57:30.788Z,1.33
2023-01-21T12:00:05.018Z,1.36
2023-01-21T12:02:36.443Z,1.38
2023-01-21T12:05:18.755Z,1.37
2023-01-21T12:07:50.504Z,1.38
2023-01-21T12:10:24.703Z,1.37
2023-01-21T12:13:03.180Z,1.34
2023-01-21T12:15:55.571Z,1.34
2023-01-21T12:18:53.715Z,1.33
2023-01-21T12:21:20.153Z,1.29
2023-01-21T12:23:59.515Z,1.24
2023-01-21T12:26:45.376Z,1.22
2023-01-21T12:29:33.710Z,1.20
2023-01-21T12:32:09.965Z,1.20
2023-01-21T12:34:55.881Z,1.26
2023-01-21T12:37:31.103Z,1.31
2023-01-21T12:40:02.611Z,1.31
2023-01-21T12:42:34.955Z,1.36
2023-01-21T12:45:13.165Z,1.35
2023-01-21T12:47:46.113Z,1.32
2023-01-21T12:50:24.301Z,1.28
2023-01-21T12:53:05.680Z,1.26
2023-01-21T12:55:54.819Z,1.28
2023-01-21T12:58:25.166Z,1.30
2023-01-21T13:00:54.603Z,1.35
2023-01-21T13:03:46.035Z,1.34
2023-01-21T13:06:23.966Z,1.36
2023-01-21T13:09:14.188Z,1.28
2023-01-21T13:11:52.443Z,1.28
2023-01-21T13:14:36.466Z,1.29
2023-01-21T13:17:13.348Z,1.28
2023-01-21T13:19:40.080Z,1.25
2023-01-21T13:22:19.122Z,1.23
2023-01-21T13:25:19.715Z,1.13
2023-01-21T13:28:11.021Z,1.12
2023-01-21T13:30:56.714Z,1.07
2023-01-21T13:33:52.226Z,1.07
2023-01-21T13:36:29.736Z,1.03
2023-01-21T13:39:04.950Z,1.05
2023-01-21T13:41:52.369Z,1.01
2023-01-21T13:44:44.047Z,1.01
2023-01-21T13:47:29.757Z,1.01
2023-01-21T13:50:28.920Z,1.04
2023-01-21T13:53:35.647Z,1.05
2023-01-21T13:56:04.916Z,1.08
2023-01-21T13:58:37.209Z,1.09
2023-01-21T14:01:15.457Z,1.10
2023-01-21T14:03:51.076Z,1.13
2023-01-21T14:06:26.813Z,1.14
2023-01-21T14:09:04.832Z,1.15
2023-01-21T14:11:37.701Z,1.13
2023-01-21T14:14:58.323Z,1.12
2023-01-21T14:17:39.574Z,1.14
2023-01-21T14:20:45.238Z,1.14
2023-01-21T14:23:31.394Z,1.10
2023-01-21T14:26:19.485Z,1.11
2023-01-21T14:28:51.807Z,1.09
2023-01-21T14:31:32.029Z,1.07
2023-01-21T14:34:17.737Z,1.08
2023-01-21T14:36:50.835Z,1.06
2023-01-21T14:39:26.912Z,1.08
2023-01-21T14:42:11.761Z,1.06
2023-01-21T14:44:38.172Z,1.10
2023-01-21T14:47:15.885Z,1.12
2023-01-21T14:49:47.932Z,1.14
2023-01-21T14:52:17.562Z,1.15
2023-01-21T14:54:45.468Z,1.15
2023-01-21T14:57:44.396Z,1.17
2023-01-21T15:00:22.988Z,1.19
2023-01-21T15:03:09.026Z,1.19
2023-01-21T15:05:36.998Z,1.21
2023-01-21T15:08:11.146Z,1.19
2023-01-21T15:10:40.345Z,1.20
2023-01-21T15:13:23.859Z,1.23
2023-01-21T15:16:31.417Z,1.26
2023-01-21T15:19:11.125Z,1.24
2023-01-21T15:21:45.010Z,1.25
2023-01-21T15:24:36.720Z,1.24
2023-01-21T15:27:28.633Z,1.19
2023-01-21T15:29:54.982Z,1.20
2023-01-21T15:32:34.480Z,1.21
2023-01-21T15:35:16.035Z,1.22
2023-01-21T15:37:45.729Z,1.22
2023-01-21T15:40:19.713Z,1.22
2023-01-21T15:43:03.577Z,1.24
2023-01-21T15:45:59.545Z,1.26
2023-01-21T15:48:54.909Z,1.27
2023-01-21T15:51:27.262Z,1.28
2023-01-21T15:53:57.510Z,1.29
2023-01-21T15:56:42.824Z,1.29
2023-01-21T15:59:27.249Z,1.29
2023-01-21T16:02:08.541Z,1.27
2023-01-21T16:05:03.341Z,1.25
2023-01-21T16:07:51.361Z,1.22
2023-01-21T16:10:39.623Z,1.20
2023-01-21T16:13:27.828Z,1.20
2023-01-21T16:16:03.243Z,1.21
2023-01-21T16:18:42.230Z,1.24
2023-01-21T16:21:09.714Z,1.25
2023-01-21T16:23:42.170Z,1.26
2023-01-21T16:26:08.592Z,1.24
2023-01-21T16:28:49.654Z,1.22
2023-01-21T16:31:16.136Z,1.24
2023-01-21T16:33:42.989Z,1.25
2023-01-21T16:36:14.029Z,1.24
2023-01-21T16:38:42.893Z,1.24
2023-01-21T16:41:12.520Z,1.24
2023-01-21T16:44:00.099Z,1.23
2023-01-21T16:46:40.342Z,1.24
2023-01-21T16:49:14.817Z,1.25
2023-01-21T16:51:54.070Z,1.23
2023-01-21T16:54:24.283Z,1.22
2023-01-21T16:57:02.375Z,1.22
2023-01-21T16:59:30.336Z,1.21
2023-01-21T17:01:58.821Z,1.20
2023-01-21T17:04:25.373Z,1.20
2023-01-21T17:06:53.885Z,1.20
2023-01-21T17:09:26.307Z,1.22
2023-01-21T17:11:54.201Z,1.21
2023-01-21T17:14:29.572Z,1.19
2023-01-21T17:16:58.754Z,1.21
2023-01-21T17:19:31.219Z,1.22
2023-01-21T17:22:10.656Z,1.25
2023-01-21T17:24:43.744Z,1.28
2023-01-21T17:27:15.022Z,1.28
2023-01-21T17:29:43.960Z,1.29
2023-01-21T17:32:31.777Z,1.30
2023-01-21T17:35:16.201Z,1.31
2023-01-21T17:37:44.746Z,1.30
2023-01-21T17:40:35.905Z,1.29
2023-01-21T17:43:14.197Z,1.29
2023-01-21T17:45:44.813Z,1.31
2023-01-21T17:48:25.804Z,1.29
2023-01-21T17:50:52.763Z,1.28
2023-01-21T17:53:26.642Z,1.24
2023-01-21T17:56:00.580Z,1.21
2023-01-21T17:58:52.441Z,1.19
2023-01-21T18:01:20.992Z,1.18
2023-01-21T18:03:47.656Z,1.17
2023-01-21T18:06:27.676Z,1.16
2023-01-21T18:08:56.683Z,1.15
2023-01-21T18:11:23.198Z,1.15
2023-01-21T18:13:50.131Z,1.11
2023-01-21T18:16:16.571Z,1.12
2023-01-21T18:18:43.255Z,1.11
2023-01-21T18:21:18.889Z,1.12
2023-01-21T18:23:45.550Z,1.12
2023-01-21T18:26:26.323Z,1.12
2023-01-21T18:28:52.832Z,1.09
2023-01-21T18:31:19.327Z,1.07
2023-01-21T18:33:45.787Z,1.05
2023-01-21T18:36:12.272Z,1.04
2023-01-21T18:38:38.758Z,1.01
2023-01-21T18:41:06.062Z,1.00
2023-01-21T18:43:32.457Z,1.00
2023-01-21T18:45:59.098Z,1.02
2023-01-21T18:48:30.359Z,1.03
2023-01-21T18:50:57.101Z,1.04
2023-01-21T18:53:23.569Z,1.07
2023-01-21T18:55:53.793Z,1.08
2023-01-21T18:58:20.239Z,1.08
2023-01-21T19:00:46.729Z,1.07
2023-01-21T19:03:14.727Z,1.08
2023-01-21T19:05:44.071Z,1.08
2023-01-21T19:08:24.583Z,1.08
2023-01-21T19:10:51.874Z,1.08
2023-01-21T19:13:18.425Z,1.07
2023-01-21T19:15:45.351Z,1.07
2023-01-21T19:18:13.567Z,1.05
2023-01-21T19:20:41.390Z,1.05
2023-01-21T19:23:16.009Z,1.04
2023-01-21T19:25:51.222Z,1.05
2023-01-21T19:28:18.533Z,1.06
2023-01-21T19:30:46.346Z,1.08
2023-01-21T19:33:12.798Z,1.10
2023-01-21T19:35:43.979Z,1.11
2023-01-21T19:38:16.388Z,1.11
2023-01-21T19:40:42.926Z,1.11
2023-01-21T19:43:17.807Z,1.12
2023-01-21T19:45:44.575Z,1.12
2023-01-21T19:48:13.276Z,1.13
2023-01-21T19:50:39.994Z,1.14
2023-01-21T19:53:06.727Z,1.15
2023-01-21T19:55:36.788Z,1.17
2023-01-21T19:58:06.806Z,1.18
2023-01-21T20:00:35.064Z,1.19
2023-01-21T20:03:01.792Z,1.20
2023-01-21T20:05:33.577Z,1.20
2023-01-21T20:08:02.183Z,1.19
2023-01-21T20:10:30.747Z,1.16
2023-01-21T20:12:57.527Z,1.14
2023-01-21T20:15:29.358Z,1.13
2023-01-21T20:17:57.774Z,1.12
2023-01-21T20:20:27.326Z,1.14
2023-01-21T20:22:54.138Z,1.11
2023-01-21T20:25:25.971Z,1.10
2023-01-21T20:27:57.500Z,1.08
2023-01-21T20:30:30.094Z,1.04
2023-01-21T20:32:58.343Z,1.02
2023-01-21T20:35:27.036Z,1.00
2023-01-21T20:37:55.275Z,1.01
2023-01-21T20:40:25.427Z,1.02
2023-01-21T20:42:52.936Z,1.00
2023-01-21T20:45:22.707Z,0.97
2023-01-21T20:47:53.167Z,0.99
2023-01-21T20:50:31.576Z,0.97
2023-01-21T20:52:58.546Z,0.96
2023-01-21T20:55:27.000Z,0.94
2023-01-21T20:57:53.435Z,0.93
2023-01-21T21:00:24.941Z,0.95
2023-01-21T21:02:51.347Z,0.87
2023-01-21T21:05:18.863Z,0.87
2023-01-21T21:07:45.520Z,0.89
2023-01-21T21:10:18.330Z,0.91
2023-01-21T21:12:44.906Z,0.89
2023-01-21T21:15:11.831Z,0.88
2023-01-21T21:17:38.431Z,0.92
2023-01-21T21:20:05.301Z,0.88
2023-01-21T21:22:31.706Z,0.88
2023-01-21T21:24:58.374Z,0.88
2023-01-21T21:27:24.789Z,0.88
2023-01-21T21:29:55.929Z,0.88
2023-01-21T21:32:22.319Z,0.86
2023-01-21T21:34:50.844Z,0.86
2023-01-21T21:37:17.272Z,0.87
2023-01-21T21:39:43.675Z,0.87
2023-01-21T21:42:30.925Z,0.87
2023-01-21T21:44:57.348Z,0.84
2023-01-21T21:47:42.586Z,0.82
2023-01-21T21:50:09.467Z,0.83
2023-01-21T21:52:35.843Z,0.82
2023-01-21T21:55:02.247Z,0.80
2023-01-21T21:57:28.634Z,0.82
2023-01-21T21:59:55.041Z,0.84
2023-01-21T22:02:21.453Z,0.86
2023-01-21T22:04:47.892Z,0.87
2023-01-21T22:07:14.264Z,0.85
2023-01-21T22:09:40.632Z,0.85
2023-01-21T22:12:07.104Z,0.88
2023-01-21T22:14:33.487Z,0.93
2023-01-21T22:17:00.293Z,0.93
2023-01-21T22:19:26.734Z,0.90
2023-01-21T22:21:53.135Z,0.89
2023-01-21T22:24:19.778Z,0.90
2023-01-21T22:26:46.291Z,0.94
2023-01-21T22:29:12.721Z,0.93
2023-01-21T22:31:39.380Z,0.93
2023-01-21T22:34:06.018Z,0.94
2023-01-21T22:36:32.501Z,0.94
2023-01-21T22:38:59.621Z,0.96
2023-01-21T22:41:26.667Z,0.96
2023-01-21T22:43:53.491Z,0.97
2023-01-21T22:46:26.036Z,0.98
2023-01-21T22:48:55.413Z,1.00
2023-01-21T22:51:22.975Z,0.97
2023-01-21T22:53:50.739Z,1.00
2023-01-21T22:56:19.447Z,1.00
2023-01-21T22:58:46.026Z,0.98
2023-01-21T23:01:24.265Z,1.00
2023-01-21T23:03:50.972Z,1.00
2023-01-21T23:06:18.439Z,1.03
2023-01-21T23:08:45.307Z,1.04
2023-01-21T23:11:14.323Z,1.07
2023-01-21T23:13:40.852Z,1.07
2023-01-21T23:16:08.828Z,1.06
2023-01-21T23:18:40.049Z,1.06
2023-01-21T23:21:08.825Z,1.07
2023-01-21T23:23:37.744Z,1.07
2023-01-21T23:26:09.183Z,1.10
2023-01-21T23:28:36.827Z,1.10
2023-01-21T23:31:09.499Z,1.14
2023-01-21T23:33:36.401Z,1.18
2023-01-21T23:36:03.378Z,1.16
2023-01-21T23:38:30.436Z,1.17
2023-01-21T23:40:57.371Z,1.17
2023-01-21T23:43:27.346Z,1.20
2023-01-21T23:45:54.717Z,1.25
2023-01-21T23:48:21.903Z,1.29
2023-01-21T23:50:48.377Z,1.32
2023-01-21T23:53:15.086Z,1.35
2023-01-21T23:55:41.467Z,1.38
2023-01-21T23:58:07.941Z,1.39
